Accueil
METAR-TAF:

METAR-TAF

Aéroports :

Bückeburg, Allemagne

latitude: 52-17N, longitude: 009-05E, altitude: 70 m

Observation

Le bulletin a été fait il y a 50 minutes, à 07:20 UTC
Vent 16 kt de sud-ouest
Température 11°C
Humidité 71%
Pression 1009 hPa
Visibilité 10 km ou plus
Nuages fragmentés à une hauteur de 2700 ft
Nuages fragmentés à une hauteur de 6000 ft

METAR: ETHB 220720Z 22016KT 9999 BKN027 BKN060 11/06 Q1009 BLU

Heure: 10:10 (08:10 UTC)


TAF: absent

Observations et prévisions météorologiques de plus de 4000 aéroports (messages METAR et TAF).

Les stations disponibles sont représentées par des disques jaunes et rouges sur la carte.

Passer la souris dessus pour voir le nom de la station.

Cliquer dessus pour voir les observations et prévisions météorologiques.

Pour changer de carte: cliquez sur les boutons verts avec une croix noire pour zoomer, sur le bouton vert avec un tiret pour effectuer un zoom arrière, ou sur les flèches vertes pour les cartes adjacentes.


METAR-TAF: